Time;durP1;ratioP1;P1;durP2;ratioP2;P2;SDS_P1;SDS_P2;PMS_P1;PMS_P2;Temp;Humidity;BMP_temperature;BMP_pressure;BME280_temperature;BME280_humidity;BME280_pressure;Samples;Min_cycle;Max_cycle;Signal;HPM_P1;HPM_P2
2023/11/12 00:00:35;;;;;;;11.43;3.88;;;;;;;;;;5073554;28;20020;-81
2023/11/12 00:03:00;;;;;;;15.70;3.55;;;;;;;;;;5073716;28;20181;-81
2023/11/12 00:05:25;;;;;;;9.15;3.17;;;;;;;;;;5055735;28;20048;-81
2023/11/12 00:07:50;;;;;;;11.27;3.37;;;;;;;;;;5073398;28;20043;-81
2023/11/12 00:10:16;;;;;;;8.47;3.30;;;;;;;;;;5073571;28;20328;-81
2023/11/12 00:12:41;;;;;;;8.98;3.80;;;;;;;;;;5073025;28;20360;-81
2023/11/12 00:15:06;;;;;;;7.65;3.20;;;;;;;;;;5055625;28;20453;-81
2023/11/12 00:17:33;;;;;;;12.05;3.50;;;;;;;;;;5073395;28;20027;-81
2023/11/12 00:19:59;;;;;;;11.50;3.35;;;;;;;;;;5073565;28;20025;-81
2023/11/12 00:22:25;;;;;;;7.55;3.33;;;;;;;;;;5054880;28;20479;-81
2023/11/12 00:24:51;;;;;;;5.28;2.75;;;;;;;;;;5055378;28;20071;-81
2023/11/12 00:27:18;;;;;;;5.13;2.63;;;;;;;;;;5073302;28;20495;-82
2023/11/12 00:29:44;;;;;;;11.52;3.22;;;;;;;;;;5056567;28;20749;-81
2023/11/12 00:32:10;;;;;;;10.18;3.40;;;;;;;;;;5055546;28;20078;-81
2023/11/12 00:34:35;;;;;;;9.20;3.60;;;;;;;;;;5055651;28;20070;-81
2023/11/12 00:37:00;;;;;;;4.87;2.80;;;;;;;;;;5073412;28;20269;-81
2023/11/12 00:39:26;;;;;;;9.30;3.13;;;;;;;;;;5055569;28;20315;-82
2023/11/12 00:41:52;;;;;;;15.70;4.60;;;;;;;;;;5073367;28;20020;-81
2023/11/12 00:44:17;;;;;;;8.65;3.38;;;;;;;;;;5072814;28;20025;-82
2023/11/12 00:46:43;;;;;;;10.75;3.58;;;;;;;;;;5055468;28;20051;-82
2023/11/12 00:49:08;;;;;;;5.15;2.78;;;;;;;;;;5055317;28;20032;-82
2023/11/12 00:51:35;;;;;;;6.13;2.95;;;;;;;;;;5055511;28;20055;-82
2023/11/12 00:54:00;;;;;;;6.93;3.20;;;;;;;;;;5055354;28;20457;-82
2023/11/12 00:56:25;;;;;;;9.55;3.30;;;;;;;;;;5055187;28;20127;-82
2023/11/12 00:58:51;;;;;;;4.17;2.70;;;;;;;;;;5055279;28;20024;-82
2023/11/12 01:01:16;;;;;;;5.77;2.67;;;;;;;;;;5055032;28;20257;-82
2023/11/12 01:03:41;;;;;;;9.93;2.88;;;;;;;;;;5055263;28;20491;-82
2023/11/12 01:06:07;;;;;;;7.43;2.60;;;;;;;;;;5055071;28;20473;-82
2023/11/12 01:08:32;;;;;;;6.87;3.00;;;;;;;;;;5054962;28;20830;-82
2023/11/12 01:10:58;;;;;;;6.70;3.20;;;;;;;;;;5073018;28;20249;-82
2023/11/12 01:13:23;;;;;;;10.15;4.18;;;;;;;;;;5073033;28;20261;-82
2023/11/12 01:15:49;;;;;;;15.05;6.65;;;;;;;;;;5072877;28;20063;-82
2023/11/12 01:18:16;;;;;;;13.07;5.15;;;;;;;;;;5054891;28;20114;-82
2023/11/12 01:20:41;;;;;;;9.13;3.90;;;;;;;;;;5072979;28;20031;-82
2023/11/12 01:23:06;;;;;;;14.93;4.20;;;;;;;;;;5072695;28;20020;-82
2023/11/12 01:25:33;;;;;;;7.72;3.20;;;;;;;;;;5054770;28;20090;-82
2023/11/12 01:27:58;;;;;;;7.45;3.03;;;;;;;;;;5054788;28;20035;-82
2023/11/12 01:30:25;;;;;;;9.43;2.40;;;;;;;;;;5072776;28;20016;-82
2023/11/12 01:32:52;;;;;;;10.75;4.55;;;;;;;;;;5072782;28;20013;-81
2023/11/12 01:35:17;;;;;;;12.20;5.18;;;;;;;;;;5072369;28;20036;-82
2023/11/12 01:37:44;;;;;;;14.18;5.93;;;;;;;;;;5072822;28;20009;-81
2023/11/12 01:40:10;;;;;;;19.38;7.05;;;;;;;;;;5054889;28;20047;-82
2023/11/12 01:42:35;;;;;;;20.65;6.82;;;;;;;;;;5072512;28;20461;-82
2023/11/12 01:45:00;;;;;;;15.83;7.97;;;;;;;;;;5072719;28;20035;-82
2023/11/12 01:47:25;;;;;;;17.10;7.28;;;;;;;;;;5057638;28;20257;-82
2023/11/12 01:49:50;;;;;;;13.00;7.15;;;;;;;;;;5076703;28;20094;-82
2023/11/12 01:52:17;;;;;;;14.30;6.00;;;;;;;;;;5076884;28;20031;-81
2023/11/12 01:54:43;;;;;;;10.70;5.57;;;;;;;;;;5058623;28;20777;-82
2023/11/12 01:57:08;;;;;;;16.13;5.72;;;;;;;;;;5058690;28;20034;-82
2023/11/12 01:59:35;;;;;;;9.63;5.28;;;;;;;;;;5076554;28;20052;-81
2023/11/12 02:02:02;;;;;;;10.82;6.03;;;;;;;;;;5050514;28;20115;-82
2023/11/12 02:04:27;;;;;;;11.38;5.97;;;;;;;;;;5058440;28;20074;-82
2023/11/12 02:06:52;;;;;;;12.73;6.13;;;;;;;;;;5058307;28;20392;-81
2023/11/12 02:09:18;;;;;;;10.70;5.60;;;;;;;;;;5058574;28;20253;-82
2023/11/12 02:11:43;;;;;;;10.90;5.28;;;;;;;;;;5058463;28;20013;-82
2023/11/12 02:14:09;;;;;;;12.23;5.57;;;;;;;;;;5058180;28;20024;-82
2023/11/12 02:16:35;;;;;;;20.35;9.57;;;;;;;;;;5058432;28;20028;-81
2023/11/12 02:19:00;;;;;;;17.08;8.63;;;;;;;;;;5057985;28;20034;-82
2023/11/12 02:21:26;;;;;;;14.90;7.75;;;;;;;;;;5076336;28;20503;-81
2023/11/12 02:23:52;;;;;;;10.20;6.25;;;;;;;;;;5076262;28;20101;-81
2023/11/12 02:26:17;;;;;;;12.73;5.97;;;;;;;;;;5076418;28;20024;-82
2023/11/12 02:28:42;;;;;;;13.65;5.38;;;;;;;;;;5076514;28;20012;-81
2023/11/12 02:31:08;;;;;;;8.00;3.05;;;;;;;;;;5075888;28;20031;-81
2023/11/12 02:33:33;;;;;;;8.20;3.03;;;;;;;;;;5057998;28;20056;-82
2023/11/12 02:35:58;;;;;;;6.57;2.88;;;;;;;;;;5075652;28;20331;-81
2023/11/12 02:38:24;;;;;;;10.83;3.07;;;;;;;;;;5057943;28;20020;-81
2023/11/12 02:40:49;;;;;;;5.05;2.10;;;;;;;;;;5075773;28;20257;-81
2023/11/12 02:43:16;;;;;;;6.85;2.90;;;;;;;;;;5075393;28;20033;-81
2023/11/12 02:45:41;;;;;;;4.82;2.65;;;;;;;;;;5075595;28;20384;-81
2023/11/12 02:48:06;;;;;;;8.03;2.70;;;;;;;;;;5058066;28;20075;-81
2023/11/12 02:50:32;;;;;;;13.20;4.87;;;;;;;;;;5075643;28;20254;-81
2023/11/12 02:53:03;;;;;;;40.10;11.90;;;;;;;;;;5075686;28;20292;-82
2023/11/12 02:55:29;;;;;;;21.10;6.05;;;;;;;;;;5049526;28;20017;-81
2023/11/12 02:57:54;;;;;;;14.38;4.80;;;;;;;;;;5056386;28;20107;-81
2023/11/12 03:00:20;;;;;;;13.13;5.10;;;;;;;;;;5057316;28;20029;-81
2023/11/12 03:02:47;;;;;;;18.02;6.45;;;;;;;;;;5075357;28;20257;-81
2023/11/12 03:05:14;;;;;;;13.45;4.25;;;;;;;;;;5075306;28;20020;-80
2023/11/12 03:07:39;;;;;;;15.90;5.85;;;;;;;;;;5049087;28;20063;-81
2023/11/12 03:10:05;;;;;;;10.82;5.38;;;;;;;;;;5057315;28;20549;-81
2023/11/12 03:12:30;;;;;;;7.75;3.60;;;;;;;;;;5075025;28;20031;-81
2023/11/12 03:14:56;;;;;;;9.23;3.72;;;;;;;;;;5075064;28;20100;-81
2023/11/12 03:17:21;;;;;;;7.03;3.55;;;;;;;;;;5075148;28;20387;-81
2023/11/12 03:19:49;;;;;;;11.15;4.22;;;;;;;;;;5056913;28;20028;-81
2023/11/12 03:22:15;;;;;;;11.25;3.80;;;;;;;;;;5057203;28;20419;-81
2023/11/12 03:24:40;;;;;;;8.45;3.63;;;;;;;;;;5074594;28;20032;-81
2023/11/12 03:27:08;;;;;;;7.27;3.43;;;;;;;;;;5074991;28;20066;-81
2023/11/12 03:29:33;;;;;;;5.80;2.78;;;;;;;;;;5056820;28;20249;-81
2023/11/12 03:31:58;;;;;;;6.30;2.80;;;;;;;;;;5056608;28;20031;-81
2023/11/12 03:34:24;;;;;;;7.15;2.67;;;;;;;;;;5074654;28;20012;-81
2023/11/12 03:36:50;;;;;;;14.77;3.95;;;;;;;;;;5074599;28;20044;-80
2023/11/12 03:39:15;;;;;;;7.95;3.53;;;;;;;;;;5074655;28;20016;-81
2023/11/12 03:41:40;;;;;;;9.93;3.85;;;;;;;;;;5056719;28;20020;-81
2023/11/12 03:44:05;;;;;;;17.30;3.60;;;;;;;;;;5056403;28;20392;-81
2023/11/12 03:46:31;;;;;;;9.02;4.03;;;;;;;;;;5074595;28;20017;-81
2023/11/12 03:48:56;;;;;;;24.48;3.90;;;;;;;;;;5056625;28;20020;-81
2023/11/12 03:51:21;;;;;;;5.97;3.17;;;;;;;;;;5056475;28;20021;-81
2023/11/12 03:53:46;;;;;;;8.33;3.90;;;;;;;;;;5056657;28;20271;-81
2023/11/12 03:56:12;;;;;;;12.87;4.47;;;;;;;;;;5056498;28;20348;-81
2023/11/12 03:58:37;;;;;;;10.90;4.25;;;;;;;;;;5074102;28;20336;-81
2023/11/12 04:01:02;;;;;;;20.90;4.65;;;;;;;;;;5074162;28;20028;-81
2023/11/12 04:03:28;;;;;;;11.13;4.45;;;;;;;;;;5056116;28;20032;-81
2023/11/12 04:05:53;;;;;;;11.20;3.90;;;;;;;;;;5056307;28;20025;-81
2023/11/12 04:08:19;;;;;;;6.53;3.55;;;;;;;;;;5056210;28;20333;-82
2023/11/12 04:10:45;;;;;;;9.50;3.13;;;;;;;;;;5073682;28;20027;-81
2023/11/12 04:13:10;;;;;;;8.15;3.95;;;;;;;;;;5074215;28;20123;-81
2023/11/12 04:15:36;;;;;;;11.45;3.53;;;;;;;;;;5056108;28;20082;-81
2023/11/12 04:18:01;;;;;;;11.10;3.45;;;;;;;;;;5073665;28;20497;-81
2023/11/12 04:20:29;;;;;;;17.77;3.80;;;;;;;;;;5073976;28;20028;-82
2023/11/12 04:22:55;;;;;;;9.65;4.05;;;;;;;;;;5056007;28;20476;-81
2023/11/12 04:25:20;;;;;;;5.88;3.10;;;;;;;;;;5074041;28;20119;-82
2023/11/12 04:27:45;;;;;;;12.65;4.10;;;;;;;;;;5056231;28;20052;-82
2023/11/12 04:30:11;;;;;;;7.53;3.67;;;;;;;;;;5074084;28;20070;-81
2023/11/12 04:32:38;;;;;;;8.50;3.83;;;;;;;;;;5073768;28;20257;-81
2023/11/12 04:35:04;;;;;;;11.27;3.42;;;;;;;;;;5073978;28;20472;-81
2023/11/12 04:37:29;;;;;;;12.30;4.30;;;;;;;;;;5056021;28;20022;-82
2023/11/12 04:39:54;;;;;;;11.30;4.60;;;;;;;;;;5056013;28;20099;-81
2023/11/12 04:42:19;;;;;;;13.13;4.43;;;;;;;;;;5055836;28;20242;-81
2023/11/12 04:44:44;;;;;;;7.33;4.17;;;;;;;;;;5055778;28;20507;-81
2023/11/12 04:47:10;;;;;;;15.57;5.27;;;;;;;;;;5055823;28;20020;-81
2023/11/12 04:49:35;;;;;;;10.50;3.65;;;;;;;;;;5073756;28;20248;-82
2023/11/12 04:52:00;;;;;;;10.30;3.47;;;;;;;;;;5073467;28;20025;-82
2023/11/12 04:54:25;;;;;;;8.93;3.70;;;;;;;;;;5073646;28;20055;-82
2023/11/12 04:56:51;;;;;;;6.97;3.38;;;;;;;;;;5073662;28;20281;-82
2023/11/12 04:59:16;;;;;;;11.55;4.03;;;;;;;;;;5073619;28;20052;-81
2023/11/12 05:01:41;;;;;;;8.77;4.73;;;;;;;;;;5055674;28;20031;-82
2023/11/12 05:04:07;;;;;;;8.95;4.85;;;;;;;;;;5073221;28;20273;-81
2023/11/12 05:06:32;;;;;;;7.67;4.20;;;;;;;;;;5055562;28;20415;-81
2023/11/12 05:08:57;;;;;;;6.07;3.42;;;;;;;;;;5055278;28;20726;-81
2023/11/12 05:11:22;;;;;;;5.65;3.58;;;;;;;;;;5055434;28;20107;-81
2023/11/12 05:13:48;;;;;;;5.33;2.50;;;;;;;;;;5055535;28;20024;-82
2023/11/12 05:16:13;;;;;;;5.97;3.33;;;;;;;;;;5073428;28;20245;-81
2023/11/12 05:18:38;;;;;;;5.00;2.83;;;;;;;;;;5055210;28;20262;-81
2023/11/12 05:21:06;;;;;;;5.33;3.17;;;;;;;;;;5054606;28;20257;-81
2023/11/12 05:23:32;;;;;;;5.75;3.58;;;;;;;;;;5055267;28;20485;-81
2023/11/12 05:25:59;;;;;;;5.47;2.78;;;;;;;;;;5072829;28;20062;-81
2023/11/12 05:28:25;;;;;;;6.22;3.47;;;;;;;;;;5055305;28;20023;-81
2023/11/12 05:30:50;;;;;;;4.40;2.67;;;;;;;;;;5073213;28;20551;-81
2023/11/12 05:33:15;;;;;;;9.93;2.40;;;;;;;;;;5055270;28;20027;-81
2023/11/12 05:35:40;;;;;;;6.70;3.30;;;;;;;;;;5073091;28;20330;-81
2023/11/12 05:38:06;;;;;;;4.07;2.50;;;;;;;;;;5055189;28;20296;-81
2023/11/12 05:40:31;;;;;;;6.73;2.47;;;;;;;;;;5055170;28;20348;-81
2023/11/12 05:42:57;;;;;;;3.45;2.22;;;;;;;;;;5055115;28;20278;-81
2023/11/12 05:45:22;;;;;;;3.08;2.15;;;;;;;;;;5055074;28;20038;-81
2023/11/12 05:47:48;;;;;;;3.63;2.20;;;;;;;;;;5055081;28;20016;-81
2023/11/12 05:50:14;;;;;;;3.23;1.70;;;;;;;;;;5073068;28;20254;-81
2023/11/12 05:52:39;;;;;;;10.88;2.00;;;;;;;;;;5073055;28;20063;-81
2023/11/12 05:55:05;;;;;;;3.50;2.30;;;;;;;;;;5073068;28;20048;-82
2023/11/12 05:57:30;;;;;;;3.05;1.92;;;;;;;;;;5054999;28;20478;-81
2023/11/12 05:59:55;;;;;;;3.83;2.10;;;;;;;;;;5052651;28;20078;-81
2023/11/12 06:02:20;;;;;;;2.90;1.83;;;;;;;;;;5053891;28;20705;-81
2023/11/12 06:04:46;;;;;;;2.77;1.50;;;;;;;;;;5053836;28;20030;-81
2023/11/12 06:07:11;;;;;;;2.20;1.50;;;;;;;;;;5071872;28;20741;-81
2023/11/12 06:09:36;;;;;;;2.78;1.85;;;;;;;;;;5053915;28;20613;-81
2023/11/12 06:12:04;;;;;;;2.75;1.80;;;;;;;;;;5071623;28;20017;-81
2023/11/12 06:14:30;;;;;;;3.70;2.10;;;;;;;;;;5053855;28;20567;-81
2023/11/12 06:16:55;;;;;;;3.45;2.35;;;;;;;;;;5071788;28;20126;-81
2023/11/12 06:19:20;;;;;;;7.53;2.70;;;;;;;;;;5071708;28;20380;-81
2023/11/12 06:21:46;;;;;;;5.85;3.17;;;;;;;;;;5053718;28;20028;-82
2023/11/12 06:24:11;;;;;;;7.83;4.03;;;;;;;;;;5053050;28;20044;-81
2023/11/12 06:26:36;;;;;;;9.68;3.50;;;;;;;;;;5071227;28;20257;-80
2023/11/12 06:29:02;;;;;;;7.68;3.95;;;;;;;;;;5053607;28;20016;-81
2023/11/12 06:31:27;;;;;;;16.13;4.77;;;;;;;;;;5071663;28;20013;-81
2023/11/12 06:33:52;;;;;;;8.47;3.77;;;;;;;;;;5074608;28;20289;-80
2023/11/12 06:36:17;;;;;;;12.17;4.00;;;;;;;;;;5075256;28;20111;-81
2023/11/12 06:38:43;;;;;;;8.48;4.80;;;;;;;;;;5056764;28;20260;-81
2023/11/12 06:41:11;;;;;;;6.35;3.60;;;;;;;;;;5075202;28;20485;-81
2023/11/12 06:43:37;;;;;;;13.60;3.08;;;;;;;;;;5075346;28;20098;-81
2023/11/12 06:46:05;;;;;;;7.28;3.42;;;;;;;;;;5057158;28;20419;-81
2023/11/12 06:48:31;;;;;;;4.78;3.10;;;;;;;;;;5057034;28;20020;-81
2023/11/12 06:50:56;;;;;;;6.15;3.20;;;;;;;;;;5056375;28;20052;-81
2023/11/12 06:53:21;;;;;;;4.63;2.67;;;;;;;;;;5056960;28;20039;-81
2023/11/12 06:55:47;;;;;;;4.63;2.80;;;;;;;;;;5074915;28;20256;-82
2023/11/12 06:58:12;;;;;;;8.40;3.23;;;;;;;;;;5056993;28;20287;-82
2023/11/12 07:00:38;;;;;;;7.93;3.00;;;;;;;;;;5074937;28;20249;-81
2023/11/12 07:03:04;;;;;;;4.57;2.78;;;;;;;;;;5056692;28;20277;-80
2023/11/12 07:05:32;;;;;;;8.95;3.67;;;;;;;;;;5074337;28;20012;-81
2023/11/12 07:08:00;;;;;;;19.45;4.60;;;;;;;;;;5057047;28;20404;-81
2023/11/12 07:10:25;;;;;;;5.82;3.40;;;;;;;;;;5074690;28;20024;-81
2023/11/12 07:12:51;;;;;;;6.50;3.15;;;;;;;;;;5055388;28;20035;-81
2023/11/12 07:15:17;;;;;;;7.43;3.75;;;;;;;;;;5056517;28;20040;-81
2023/11/12 07:17:44;;;;;;;5.72;3.75;;;;;;;;;;5056204;28;20012;-81
2023/11/12 07:20:11;;;;;;;14.82;3.97;;;;;;;;;;5074454;28;20020;-81
2023/11/12 07:22:36;;;;;;;5.55;3.17;;;;;;;;;;5074393;28;20021;-82
2023/11/12 07:25:02;;;;;;;10.27;3.30;;;;;;;;;;5074206;28;20409;-82
2023/11/12 07:27:27;;;;;;;9.80;3.22;;;;;;;;;;5074438;28;20246;-82
2023/11/12 07:29:52;;;;;;;6.72;3.90;;;;;;;;;;5073853;28;20097;-81
2023/11/12 07:32:18;;;;;;;8.82;3.75;;;;;;;;;;5074292;28;20457;-81
2023/11/12 07:34:43;;;;;;;16.77;3.80;;;;;;;;;;5056117;28;20045;-81
2023/11/12 07:37:08;;;;;;;6.77;3.77;;;;;;;;;;5074179;28;20021;-81
2023/11/12 07:39:34;;;;;;;16.63;4.83;;;;;;;;;;5055695;28;20261;-81
2023/11/12 07:41:59;;;;;;;9.73;4.87;;;;;;;;;;5073430;28;20269;-82
2023/11/12 07:44:24;;;;;;;9.27;4.83;;;;;;;;;;5054414;28;20082;-81
2023/11/12 07:46:49;;;;;;;16.45;7.32;;;;;;;;;;5055694;28;20246;-81
2023/11/12 07:49:15;;;;;;;35.80;11.90;;;;;;;;;;5073183;28;20017;-80
2023/11/12 07:51:40;;;;;;;15.98;6.00;;;;;;;;;;5055619;28;20023;-81
2023/11/12 07:54:05;;;;;;;7.73;3.87;;;;;;;;;;5073287;28;20074;-81
2023/11/12 07:56:31;;;;;;;5.13;3.50;;;;;;;;;;5054954;28;20257;-81
2023/11/12 07:58:56;;;;;;;20.23;9.52;;;;;;;;;;5073407;28;20036;-81
2023/11/12 08:01:21;;;;;;;20.05;8.90;;;;;;;;;;5055163;28;20040;-81
2023/11/12 08:03:46;;;;;;;10.07;4.35;;;;;;;;;;5073141;28;20149;-80
2023/11/12 08:06:13;;;;;;;7.03;3.53;;;;;;;;;;5055352;28;20111;-81
2023/11/12 08:08:38;;;;;;;7.45;3.47;;;;;;;;;;5072508;28;20257;-81
2023/11/12 08:11:04;;;;;;;15.90;4.30;;;;;;;;;;5073191;28;20394;-84
2023/11/12 08:13:29;;;;;;;9.03;5.17;;;;;;;;;;5072964;28;20037;-83
2023/11/12 08:15:54;;;;;;;7.63;4.32;;;;;;;;;;5046605;28;20391;-84
2023/11/12 08:18:19;;;;;;;10.97;5.07;;;;;;;;;;5073415;28;20388;-83
2023/11/12 08:20:45;;;;;;;8.63;4.82;;;;;;;;;;5054685;28;20344;-83
2023/11/12 08:23:10;;;;;;;7.40;4.05;;;;;;;;;;5072166;28;20036;-83
2023/11/12 08:25:37;;;;;;;9.52;4.03;;;;;;;;;;5054820;28;20083;-84
2023/11/12 08:28:02;;;;;;;10.05;4.32;;;;;;;;;;5072833;28;20025;-83
2023/11/12 08:30:27;;;;;;;7.03;3.22;;;;;;;;;;5054687;28;20039;-84
2023/11/12 08:32:52;;;;;;;7.77;3.53;;;;;;;;;;5054667;28;20102;-84
2023/11/12 08:35:18;;;;;;;9.90;3.55;;;;;;;;;;5053999;28;20096;-84
2023/11/12 08:37:43;;;;;;;6.90;3.97;;;;;;;;;;5054669;28;20012;-81
2023/11/12 08:40:11;;;;;;;9.60;4.47;;;;;;;;;;5054783;28;20115;-81
2023/11/12 08:42:37;;;;;;;6.97;3.90;;;;;;;;;;5073326;28;20016;-82
2023/11/12 08:45:04;;;;;;;6.40;3.22;;;;;;;;;;5072663;28;20380;-83
2023/11/12 08:47:29;;;;;;;8.52;3.83;;;;;;;;;;5073219;28;20103;-83
2023/11/12 08:49:54;;;;;;;6.53;3.53;;;;;;;;;;5055361;28;20025;-83
2023/11/12 08:52:19;;;;;;;6.53;3.77;;;;;;;;;;5073301;28;20253;-83
2023/11/12 08:54:45;;;;;;;11.20;4.10;;;;;;;;;;5054764;28;20020;-82
2023/11/12 08:57:10;;;;;;;7.80;3.05;;;;;;;;;;5053335;28;20249;-82
2023/11/12 08:59:36;;;;;;;12.30;4.63;;;;;;;;;;5072998;28;20028;-82
2023/11/12 09:02:02;;;;;;;11.85;4.13;;;;;;;;;;5055333;28;20024;-84
2023/11/12 09:04:28;;;;;;;9.00;3.85;;;;;;;;;;5073147;28;20495;-84
2023/11/12 09:06:53;;;;;;;10.57;3.77;;;;;;;;;;5055131;28;20016;-85
2023/11/12 09:09:18;;;;;;;6.22;3.42;;;;;;;;;;5055116;28;20027;-84
2023/11/12 09:11:44;;;;;;;7.43;3.60;;;;;;;;;;5072915;28;20025;-83
2023/11/12 09:14:11;;;;;;;5.30;3.07;;;;;;;;;;5055090;28;20071;-84
2023/11/12 09:16:42;;;;;;;8.60;4.03;;;;;;;;;;5073043;28;20025;-84
2023/11/12 09:19:07;;;;;;;16.13;9.27;;;;;;;;;;5054831;28;20472;-84
2023/11/12 09:21:32;;;;;;;35.00;21.17;;;;;;;;;;5073035;28;20082;-84
2023/11/12 09:23:57;;;;;;;19.03;9.77;;;;;;;;;;5072722;28;20322;-84
2023/11/12 09:26:23;;;;;;;15.80;7.13;;;;;;;;;;5072693;28;20028;-84
2023/11/12 09:28:48;;;;;;;24.65;13.45;;;;;;;;;;5055033;28;20021;-84
2023/11/12 09:31:14;;;;;;;18.38;9.68;;;;;;;;;;5071249;28;20021;-84
2023/11/12 09:33:39;;;;;;;13.37;7.30;;;;;;;;;;5054983;28;20104;-84
2023/11/12 09:36:05;;;;;;;13.07;8.35;;;;;;;;;;5072778;28;20349;-83
2023/11/12 09:38:34;;;;;;;11.00;6.35;;;;;;;;;;5054550;28;20025;-84
2023/11/12 09:41:01;;;;;;;11.32;7.35;;;;;;;;;;5054857;28;20024;-84
2023/11/12 09:43:28;;;;;;;8.45;5.05;;;;;;;;;;5054568;28;20433;-84
2023/11/12 09:45:55;;;;;;;9.45;4.25;;;;;;;;;;5072947;28;20100;-84
2023/11/12 09:48:39;;;;;;;6.10;3.95;;;;;;;;;;5072701;28;20032;-84
2023/11/12 09:51:09;;;;;;;7.57;4.18;;;;;;;;;;5065895;28;20016;-84
2023/11/12 09:53:43;;;;;;;7.75;3.72;;;;;;;;;;5072583;28;20464;-84
2023/11/12 09:56:09;;;;;;;11.05;3.50;;;;;;;;;;5054465;28;20365;-84
2023/11/12 09:58:38;;;;;;;7.32;3.85;;;;;;;;;;5072605;28;20028;-84
2023/11/12 10:01:09;;;;;;;22.95;9.57;;;;;;;;;;5072916;28;20024;-83
2023/11/12 10:03:35;;;;;;;7.35;2.97;;;;;;;;;;5054587;28;20535;-84
2023/11/12 10:06:03;;;;;;;6.45;3.33;;;;;;;;;;5072318;28;20089;-84
2023/11/12 10:08:29;;;;;;;9.20;3.80;;;;;;;;;;5057534;28;20464;-84
2023/11/12 10:11:12;;;;;;;9.27;4.22;;;;;;;;;;5058251;28;20465;-84
2023/11/12 10:13:37;;;;;;;10.27;4.10;;;;;;;;;;5076359;28;20066;-84
2023/11/12 10:16:19;;;;;;;8.93;3.40;;;;;;;;;;5076326;28;20037;-84
2023/11/12 10:18:45;;;;;;;5.47;2.65;;;;;;;;;;5058380;28;20249;-83
2023/11/12 10:21:10;;;;;;;7.37;2.50;;;;;;;;;;5058070;28;20502;-84
2023/11/12 10:23:35;;;;;;;8.03;2.73;;;;;;;;;;5058032;28;20280;-84
2023/11/12 10:26:09;;;;;;;5.13;3.40;;;;;;;;;;5054703;28;20047;-84
2023/11/12 10:28:34;;;;;;;7.38;3.83;;;;;;;;;;5055996;28;20021;-83
2023/11/12 10:31:00;;;;;;;10.70;2.97;;;;;;;;;;5056232;28;20035;-83
2023/11/12 10:33:28;;;;;;;9.57;3.92;;;;;;;;;;5054756;28;20060;-84
2023/11/12 10:35:57;;;;;;;5.97;3.72;;;;;;;;;;5055705;28;20358;-84
2023/11/12 10:38:23;;;;;;;8.90;3.50;;;;;;;;;;5055981;28;20047;-83
2023/11/12 10:41:00;;;;;;;5.90;3.10;;;;;;;;;;5056086;28;20078;-84
2023/11/12 10:43:27;;;;;;;11.13;4.32;;;;;;;;;;5055932;28;20024;-84
2023/11/12 10:45:57;;;;;;;5.35;3.28;;;;;;;;;;5055936;28;20481;-84
2023/11/12 10:48:26;;;;;;;8.30;3.03;;;;;;;;;;5054105;28;20021;-84
2023/11/12 10:50:52;;;;;;;10.60;2.95;;;;;;;;;;5055433;28;20028;-84
2023/11/12 10:53:17;;;;;;;9.20;3.33;;;;;;;;;;5054138;28;20028;-84
2023/11/12 10:55:42;;;;;;;9.13;3.35;;;;;;;;;;5054320;28;20465;-84
2023/11/12 10:58:09;;;;;;;7.45;3.33;;;;;;;;;;5055499;28;20057;-84
2023/11/12 11:00:35;;;;;;;5.28;2.90;;;;;;;;;;5055432;28;20025;-84
2023/11/12 11:03:00;;;;;;;10.63;3.25;;;;;;;;;;5054382;28;20029;-84
2023/11/12 11:05:26;;;;;;;7.53;3.25;;;;;;;;;;5055447;28;20031;-84
2023/11/12 11:07:53;;;;;;;10.05;4.30;;;;;;;;;;5055152;28;20440;-84
2023/11/12 11:10:19;;;;;;;5.78;3.30;;;;;;;;;;5053835;28;20117;-83
2023/11/12 11:12:44;;;;;;;6.30;3.72;;;;;;;;;;5053972;28;20171;-83
2023/11/12 11:15:28;;;;;;;8.32;3.97;;;;;;;;;;5053869;28;20515;-83
2023/11/12 11:17:54;;;;;;;5.13;3.17;;;;;;;;;;5053989;28;20056;-84
2023/11/12 11:20:19;;;;;;;7.50;4.17;;;;;;;;;;5054334;28;20442;-83
2023/11/12 11:22:44;;;;;;;9.05;5.28;;;;;;;;;;5055077;28;20258;-83
2023/11/12 11:25:22;;;;;;;7.85;3.75;;;;;;;;;;5066952;28;20044;-84
2023/11/12 11:27:50;;;;;;;10.93;4.72;;;;;;;;;;5049255;28;20017;-84
2023/11/12 11:30:16;;;;;;;7.50;4.18;;;;;;;;;;5057076;28;20038;-83
2023/11/12 11:32:54;;;;;;;7.78;3.58;;;;;;;;;;5074794;28;20742;-84
2023/11/12 11:35:21;;;;;;;7.03;3.60;;;;;;;;;;5074949;28;20492;-84
2023/11/12 11:38:05;;;;;;;10.63;3.95;;;;;;;;;;5056831;28;20056;-84
2023/11/12 11:40:30;;;;;;;10.15;4.15;;;;;;;;;;5074848;28;20488;-84
2023/11/12 11:43:15;;;;;;;6.90;3.88;;;;;;;;;;5074501;28;20029;-84
2023/11/12 11:45:58;;;;;;;5.28;3.28;;;;;;;;;;5056602;28;20495;-83
2023/11/12 11:48:24;;;;;;;11.57;4.32;;;;;;;;;;5051204;28;20553;-87
2023/11/12 11:50:49;;;;;;;6.75;3.70;;;;;;;;;;5056372;28;20025;-83
2023/11/12 11:53:15;;;;;;;5.53;3.23;;;;;;;;;;5074591;28;20046;-83
2023/11/12 11:55:45;;;;;;;5.45;3.15;;;;;;;;;;5056273;28;20048;-84
2023/11/12 11:58:11;;;;;;;16.75;7.57;;;;;;;;;;5056554;28;20032;-84
2023/11/12 12:00:55;;;;;;;6.38;2.88;;;;;;;;;;5074232;28;20020;-85
2023/11/12 12:03:23;;;;;;;10.93;4.05;;;;;;;;;;5074264;28;20030;-85
2023/11/12 12:05:48;;;;;;;15.10;5.70;;;;;;;;;;5056532;28;20023;-84
2023/11/12 12:08:13;;;;;;;10.48;4.65;;;;;;;;;;5074870;28;20107;-85
2023/11/12 12:10:39;;;;;;;7.27;3.50;;;;;;;;;;5056270;28;20025;-82
2023/11/12 12:13:05;;;;;;;5.70;3.05;;;;;;;;;;5074069;28;20031;-84
2023/11/12 12:15:33;;;;;;;6.97;3.53;;;;;;;;;;5074122;28;20480;-84
2023/11/12 12:17:58;;;;;;;5.22;2.72;;;;;;;;;;5073812;28;20377;-84
2023/11/12 12:20:25;;;;;;;5.70;2.93;;;;;;;;;;5056134;28;20069;-84
2023/11/12 12:22:51;;;;;;;6.68;2.67;;;;;;;;;;5074046;28;20025;-83
2023/11/12 12:25:16;;;;;;;8.15;2.97;;;;;;;;;;5055364;28;20174;-84
2023/11/12 12:27:52;;;;;;;6.47;3.17;;;;;;;;;;5055972;28;20017;-84
2023/11/12 12:30:17;;;;;;;7.63;3.13;;;;;;;;;;5073317;28;20315;-84
2023/11/12 12:32:44;;;;;;;9.48;2.38;;;;;;;;;;5055982;28;20052;-85
2023/11/12 12:35:20;;;;;;;6.75;2.83;;;;;;;;;;5067270;28;20032;-85
2023/11/12 12:37:45;;;;;;;7.50;2.35;;;;;;;;;;5078096;28;20099;-84
2023/11/12 12:40:15;;;;;;;8.25;3.17;;;;;;;;;;5057320;28;20064;-84
2023/11/12 12:42:43;;;;;;;5.43;2.42;;;;;;;;;;5079220;28;20050;-85
2023/11/12 12:45:15;;;;;;;6.18;2.40;;;;;;;;;;5080989;28;20044;-84
2023/11/12 12:47:42;;;;;;;;;;;;;;;;;;5072960;28;20074;-84
2023/11/12 12:50:13;;;;;;;4.55;2.58;;;;;;;;;;5061915;28;20257;-85
2023/11/12 12:52:42;;;;;;;4.93;2.92;;;;;;;;;;5054870;28;20112;-86
2023/11/12 12:55:10;;;;;;;5.63;2.63;;;;;;;;;;5072846;28;20472;-84
2023/11/12 12:57:36;;;;;;;5.13;2.58;;;;;;;;;;5072801;28;20526;-85
2023/11/12 13:00:03;;;;;;;7.75;3.25;;;;;;;;;;5054823;28;20065;-85
2023/11/12 13:02:28;;;;;;;6.15;2.88;;;;;;;;;;5055048;28;20119;-82
2023/11/12 13:04:53;;;;;;;8.23;3.63;;;;;;;;;;5072000;28;20108;-81
2023/11/12 13:07:19;;;;;;;7.57;2.90;;;;;;;;;;5055075;28;20468;-82
2023/11/12 13:09:44;;;;;;;9.68;3.85;;;;;;;;;;5072403;28;20027;-82
2023/11/12 13:12:12;;;;;;;7.38;3.38;;;;;;;;;;5072687;28;20059;-82
2023/11/12 13:14:38;;;;;;;8.07;2.55;;;;;;;;;;5072798;28;20096;-84
2023/11/12 13:17:04;;;;;;;6.35;2.65;;;;;;;;;;5054974;28;20392;-84
2023/11/12 13:19:30;;;;;;;4.45;2.45;;;;;;;;;;5058143;28;20016;-84
2023/11/12 13:21:55;;;;;;;10.43;4.63;;;;;;;;;;5072538;28;20023;-83
2023/11/12 13:24:23;;;;;;;6.40;2.70;;;;;;;;;;5054394;28;20041;-85
2023/11/12 13:26:48;;;;;;;7.40;3.33;;;;;;;;;;5072846;28;20061;-85
2023/11/12 13:29:14;;;;;;;4.95;2.67;;;;;;;;;;5054850;28;20020;-84
2023/11/12 13:31:39;;;;;;;11.00;3.50;;;;;;;;;;5072741;28;20369;-85
2023/11/12 13:34:06;;;;;;;3.83;2.10;;;;;;;;;;5071618;28;20404;-84
2023/11/12 13:36:32;;;;;;;6.28;2.60;;;;;;;;;;5054530;28;20265;-84
2023/11/12 13:38:57;;;;;;;5.40;2.50;;;;;;;;;;5054057;28;20369;-84
2023/11/12 13:41:23;;;;;;;7.28;3.15;;;;;;;;;;5038622;28;20393;-85
2023/11/12 13:43:48;;;;;;;6.70;2.47;;;;;;;;;;5078692;28;20020;-85
2023/11/12 13:46:14;;;;;;;8.15;3.15;;;;;;;;;;5060568;28;20027;-84
2023/11/12 13:48:39;;;;;;;5.78;2.65;;;;;;;;;;5060540;28;20030;-84
2023/11/12 13:51:09;;;;;;;5.50;2.20;;;;;;;;;;5083189;28;20040;-84
2023/11/12 13:53:34;;;;;;;6.28;2.33;;;;;;;;;;5060959;28;20265;-84
2023/11/12 13:56:00;;;;;;;6.28;2.80;;;;;;;;;;5078762;28;20108;-84
2023/11/12 13:58:25;;;;;;;5.10;1.95;;;;;;;;;;5078989;28;20423;-84
2023/11/12 14:00:51;;;;;;;13.27;4.05;;;;;;;;;;5061026;28;20073;-84
2023/11/12 14:03:17;;;;;;;15.65;4.63;;;;;;;;;;5078212;28;20025;-84
2023/11/12 14:05:43;;;;;;;10.15;3.20;;;;;;;;;;5060574;28;20495;-84
2023/11/12 14:08:09;;;;;;;7.85;2.55;;;;;;;;;;5078904;28;20028;-84
2023/11/12 14:10:34;;;;;;;11.32;3.17;;;;;;;;;;5078285;28;20016;-85
2023/11/12 14:13:02;;;;;;;6.65;2.65;;;;;;;;;;5078969;28;20036;-84
2023/11/12 14:15:28;;;;;;;11.57;2.85;;;;;;;;;;5079101;28;20016;-84
2023/11/12 14:17:53;;;;;;;6.38;2.22;;;;;;;;;;5079070;28;20016;-85
2023/11/12 14:20:25;;;;;;;11.53;4.10;;;;;;;;;;5066181;28;20111;-84
2023/11/12 14:22:50;;;;;;;14.85;4.03;;;;;;;;;;5060799;28;20261;-84
2023/11/12 14:25:18;;;;;;;14.98;5.65;;;;;;;;;;5078483;28;20028;-83
2023/11/12 14:27:45;;;;;;;8.50;3.38;;;;;;;;;;5060786;28;20468;-84
2023/11/12 14:30:13;;;;;;;8.57;3.92;;;;;;;;;;5078356;28;20086;-84
2023/11/12 14:32:38;;;;;;;9.93;3.80;;;;;;;;;;5078622;28;20017;-85